Time;durP1;ratioP1;P1;durP2;ratioP2;P2;SDS_P1;SDS_P2;PMS_P1;PMS_P2;Temp;Humidity;BMP_temperature;BMP_pressure;BME280_temperature;BME280_humidity;BME280_pressure;Samples;Min_cycle;Max_cycle;Signal;HPM_P1;HPM_P2
2020/12/04 00:00:53;;;;;;;2.42;1.45;;;;;;;4.69;100.00;98032.75;5070014;28;20024;-69
2020/12/04 00:03:19;;;;;;;2.08;1.30;;;;;;;4.71;100.00;98027.25;5070916;28;20025;-69
2020/12/04 00:05:45;;;;;;;1.67;1.13;;;;;;;4.72;100.00;98019.09;5070137;28;20528;-69
2020/12/04 00:08:10;;;;;;;2.75;1.48;;;;;;;4.71;100.00;98009.47;5070316;28;20029;-69
2020/12/04 00:10:36;;;;;;;2.22;1.35;;;;;;;4.69;100.00;98008.88;5052299;28;20039;-69
2020/12/04 00:13:01;;;;;;;3.28;1.30;;;;;;;4.71;100.00;98006.00;5070268;28;20036;-69
2020/12/04 00:15:27;;;;;;;3.85;1.13;;;;;;;4.66;100.00;97994.13;5064530;28;20485;-69
2020/12/04 00:17:52;;;;;;;1.88;1.30;;;;;;;4.63;100.00;97993.72;5070176;28;20036;-69
2020/12/04 00:20:18;;;;;;;2.28;1.42;;;;;;;4.62;100.00;97989.44;5070122;28;20069;-69
2020/12/04 00:22:43;;;;;;;3.65;1.40;;;;;;;4.64;100.00;97982.09;5070194;28;20078;-69
2020/12/04 00:25:09;;;;;;;2.42;1.48;;;;;;;4.63;100.00;97973.28;5070341;28;20032;-69
2020/12/04 00:27:35;;;;;;;2.58;1.30;;;;;;;4.61;100.00;97962.03;5070094;28;20504;-69
2020/12/04 00:30:01;;;;;;;2.17;1.17;;;;;;;4.62;100.00;97955.72;5068321;28;20032;-69
2020/12/04 00:32:26;;;;;;;1.95;1.35;;;;;;;4.62;100.00;97955.72;5062672;28;20401;-69
2020/12/04 00:34:53;;;;;;;2.08;1.42;;;;;;;4.65;100.00;97949.19;5063819;28;20040;-68
2020/12/04 00:37:18;;;;;;;2.75;1.40;;;;;;;4.65;100.00;97949.19;5061652;28;20535;-68
2020/12/04 00:39:44;;;;;;;2.45;1.40;;;;;;;4.65;100.00;97935.91;5065000;28;20025;-68
2020/12/04 00:42:09;;;;;;;3.70;1.48;;;;;;;4.65;100.00;97926.09;5069549;28;20160;-68
2020/12/04 00:44:35;;;;;;;3.45;1.27;;;;;;;4.64;100.00;97924.47;5070021;28;20036;-69
2020/12/04 00:47:01;;;;;;;1.95;1.33;;;;;;;4.63;100.00;97922.84;5068938;28;20036;-68
2020/12/04 00:49:28;;;;;;;4.97;2.75;;;;;;;4.61;100.00;97926.69;5070087;28;20032;-68
2020/12/04 00:51:53;;;;;;;4.53;1.73;;;;;;;4.63;100.00;97914.06;5030608;28;20032;-68
2020/12/04 00:54:19;;;;;;;3.15;1.60;;;;;;;4.64;100.00;97905.88;5070065;28;20515;-68
2020/12/04 00:56:45;;;;;;;2.20;1.50;;;;;;;4.63;100.00;97900.78;5068918;28;20055;-68
2020/12/04 00:59:10;;;;;;;4.65;1.63;;;;;;;4.66;100.00;97905.69;5069170;28;20032;-68
2020/12/04 01:01:36;;;;;;;2.90;1.75;;;;;;;4.70;100.00;97893.66;5069451;28;20124;-68
2020/12/04 01:04:01;;;;;;;2.70;1.42;;;;;;;4.66;100.00;97885.25;5069248;28;20040;-68
2020/12/04 01:06:27;;;;;;;3.42;1.60;;;;;;;4.66;100.00;97874.63;5069058;28;20032;-69
2020/12/04 01:08:53;;;;;;;3.75;1.33;;;;;;;4.67;100.00;97873.63;5069404;28;20119;-68
2020/12/04 01:11:20;;;;;;;2.78;1.77;;;;;;;4.66;100.00;97857.88;5069095;28;20549;-68
2020/12/04 01:13:46;;;;;;;2.38;1.48;;;;;;;4.65;100.00;97856.25;5068800;28;20028;-68
2020/12/04 01:16:11;;;;;;;2.65;1.65;;;;;;;4.63;100.00;97855.66;5057506;28;20558;-68
2020/12/04 01:18:37;;;;;;;3.50;1.80;;;;;;;4.64;100.00;97854.63;5062229;28;20082;-68
2020/12/04 01:21:05;;;;;;;3.70;1.50;;;;;;;4.63;100.00;97850.34;5056841;28;20025;-69
2020/12/04 01:23:31;;;;;;;2.30;1.50;;;;;;;4.67;100.00;97841.78;5068959;28;20029;-68
2020/12/04 01:25:56;;;;;;;3.35;1.90;;;;;;;4.71;100.00;97836.84;5051237;28;20032;-69
2020/12/04 01:28:22;;;;;;;2.28;1.65;;;;;;;4.73;100.00;97832.19;5036666;28;20036;-69
2020/12/04 01:30:47;;;;;;;3.75;1.92;;;;;;;4.74;100.00;97827.69;5053435;28;20041;-69
2020/12/04 01:33:13;;;;;;;2.13;1.40;;;;;;;4.81;100.00;97825.84;5052622;28;20035;-69
2020/12/04 01:35:38;;;;;;;3.10;1.45;;;;;;;4.80;100.00;97830.34;5061411;28;20059;-69
2020/12/04 01:38:04;;;;;;;2.47;1.75;;;;;;;4.87;100.00;97827.66;5043273;28;20035;-69
2020/12/04 01:40:32;;;;;;;2.20;1.40;;;;;;;4.89;100.00;97810.53;5069032;28;20036;-69
2020/12/04 01:42:57;;;;;;;3.88;1.52;;;;;;;4.91;100.00;97807.66;5067771;28;20033;-69
2020/12/04 01:45:23;;;;;;;3.10;1.83;;;;;;;4.96;100.00;97807.03;5069301;28;20107;-69
2020/12/04 01:47:50;;;;;;;3.25;1.48;;;;;;;4.98;100.00;97799.72;5067548;28;20036;-69
2020/12/04 01:50:16;;;;;;;2.40;1.33;;;;;;;5.03;100.00;97786.63;5058526;28;20034;-69
2020/12/04 01:52:42;;;;;;;2.65;1.38;;;;;;;5.09;100.00;97785.78;5056762;28;20109;-69
2020/12/04 01:55:07;;;;;;;1.92;1.30;;;;;;;5.11;100.00;97789.06;5068968;28;20080;-69
2020/12/04 01:57:35;;;;;;;1.65;1.20;;;;;;;5.14;100.00;97783.34;5067166;28;20883;-69
2020/12/04 02:00:01;;;;;;;1.95;1.20;;;;;;;5.21;100.00;97778.81;5069091;28;20033;-69
2020/12/04 02:02:26;;;;;;;2.13;1.17;;;;;;;5.24;100.00;97778.41;5068559;28;20090;-69
2020/12/04 02:04:52;;;;;;;2.90;1.45;;;;;;;5.27;100.00;97772.69;5069219;28;20492;-68
2020/12/04 02:07:21;;;;;;;2.40;1.38;;;;;;;5.30;100.00;97764.28;5068064;28;20543;-69
2020/12/04 02:09:51;;;;;;;2.15;1.08;;;;;;;5.39;100.00;97752.41;5068733;28;20035;-69
2020/12/04 02:12:18;;;;;;;3.42;1.65;;;;;;;5.42;100.00;97760.00;5068018;28;20036;-69
2020/12/04 02:14:47;;;;;;;2.80;1.30;;;;;;;5.45;100.00;97751.56;5068822;28;20040;-69
2020/12/04 02:17:14;;;;;;;1.63;1.02;;;;;;;5.46;100.00;97739.09;5050290;28;20040;-69
2020/12/04 02:19:41;;;;;;;2.95;1.70;;;;;;;5.55;100.00;97751.16;5069057;28;20158;-69
2020/12/04 02:22:09;;;;;;;1.92;1.05;;;;;;;5.60;100.00;97742.53;5068122;28;20036;-69
2020/12/04 02:24:35;;;;;;;1.23;0.93;;;;;;;5.59;100.00;97740.91;5068086;28;20078;-69
2020/12/04 02:27:01;;;;;;;1.48;0.98;;;;;;;5.63;100.00;97739.47;5067748;28;20508;-69
2020/12/04 02:29:27;;;;;;;1.80;1.20;;;;;;;5.64;100.00;97735.78;5068798;28;20032;-69
2020/12/04 02:31:53;;;;;;;1.60;1.20;;;;;;;5.66;100.00;97736.38;5023697;28;20117;-68
2020/12/04 02:34:18;;;;;;;1.58;0.95;;;;;;;5.71;100.00;97748.00;5063434;28;20056;-68
2020/12/04 02:36:46;;;;;;;3.05;1.20;;;;;;;5.71;100.00;97742.69;5064036;28;20432;-69
2020/12/04 02:39:24;;;;;;;1.40;0.98;;;;;;;5.79;100.00;97740.84;5044497;28;20029;-69
2020/12/04 02:41:50;;;;;;;4.72;1.20;;;;;;;5.81;100.00;97742.25;5068236;28;20029;-69
2020/12/04 02:44:16;;;;;;;2.50;1.10;;;;;;;5.79;100.00;97749.63;5068036;28;20032;-69
2020/12/04 02:46:47;;;;;;;0.80;0.80;;;;;;;5.81;100.00;97731.59;5067099;28;20044;-69
2020/12/04 02:49:13;;;;;;;1.85;1.20;;;;;;;5.79;100.00;97733.66;5050530;28;20086;-69
2020/12/04 02:51:43;;;;;;;1.38;1.00;;;;;;;5.81;100.00;97720.16;5046374;28;20032;-68
2020/12/04 02:54:09;;;;;;;1.85;1.00;;;;;;;5.84;100.00;97725.88;5067743;28;20028;-69
2020/12/04 02:56:35;;;;;;;2.30;1.48;;;;;;;5.84;100.00;97730.38;5054455;28;20039;-68
2020/12/04 02:59:01;;;;;;;3.38;1.05;;;;;;;5.87;100.00;97720.13;5049867;28;20426;-69
2020/12/04 03:01:27;;;;;;;1.63;1.05;;;;;;;5.84;100.00;97717.88;5068059;28;20078;-69
2020/12/04 03:03:52;;;;;;;1.48;1.00;;;;;;;5.89;100.00;97718.06;5067989;28;20024;-69
2020/12/04 03:06:18;;;;;;;1.80;0.93;;;;;;;5.89;100.00;97718.06;5023271;28;20583;-69
2020/12/04 03:08:44;;;;;;;2.30;1.15;;;;;;;5.87;100.00;97709.50;5067857;28;20036;-69
2020/12/04 03:11:10;;;;;;;1.77;1.10;;;;;;;5.87;100.00;97711.31;5034698;28;20029;-69
2020/12/04 03:13:36;;;;;;;1.52;1.00;;;;;;;5.87;100.00;97704.19;5061378;28;20361;-69
2020/12/04 03:16:02;;;;;;;1.77;0.95;;;;;;;5.88;100.00;97711.13;5057555;28;20083;-68
2020/12/04 03:18:28;;;;;;;2.85;1.23;;;;;;;5.88;100.00;97700.47;5060740;28;20048;-69
2020/12/04 03:20:53;;;;;;;1.85;1.20;;;;;;;5.88;100.00;97689.03;5067400;28;20048;-68
2020/12/04 03:23:19;;;;;;;1.63;1.02;;;;;;;5.92;100.00;97695.56;5067618;28;20085;-69
2020/12/04 03:25:44;;;;;;;2.08;1.00;;;;;;;5.90;100.00;97687.78;5067921;28;20116;-69
2020/12/04 03:28:10;;;;;;;1.63;0.95;;;;;;;5.91;100.00;97675.28;5067267;28;20036;-69
2020/12/04 03:30:36;;;;;;;1.50;0.80;;;;;;;5.89;100.00;97685.34;5055107;28;20037;-69
2020/12/04 03:33:01;;;;;;;2.78;1.20;;;;;;;5.96;100.00;97678.97;5049304;28;20041;-68
2020/12/04 03:35:28;;;;;;;3.75;0.90;;;;;;;5.97;100.00;97695.72;5065187;28;20029;-69
2020/12/04 03:37:53;;;;;;;1.33;0.90;;;;;;;6.05;100.00;97684.84;5050996;28;20032;-69
2020/12/04 03:40:19;;;;;;;1.60;1.00;;;;;;;6.11;100.00;97691.16;5066537;28;20028;-69
2020/12/04 03:42:44;;;;;;;1.35;0.82;;;;;;;6.15;100.00;97684.38;5050049;28;20036;-69
2020/12/04 03:45:10;;;;;;;1.98;0.90;;;;;;;6.21;100.00;97691.50;5067263;28;20121;-69
2020/12/04 03:47:38;;;;;;;1.13;0.82;;;;;;;6.22;100.00;97693.13;5067514;28;20031;-69
2020/12/04 03:50:05;;;;;;;0.98;0.88;;;;;;;6.23;100.00;97682.28;5059644;28;20029;-69
2020/12/04 03:52:30;;;;;;;3.63;0.82;;;;;;;6.24;100.00;97696.41;5053569;28;20097;-69
2020/12/04 03:54:56;;;;;;;1.55;0.80;;;;;;;6.26;100.00;97709.50;5049150;28;20495;-69
2020/12/04 03:57:22;;;;;;;1.58;0.90;;;;;;;6.25;100.00;97715.84;5069685;28;20036;-68
2020/12/04 03:59:47;;;;;;;1.08;0.70;;;;;;;6.25;100.00;97706.00;5070824;28;20150;-68
2020/12/04 04:02:13;;;;;;;1.15;0.70;;;;;;;6.23;100.00;97710.75;5071302;28;20028;-68
2020/12/04 04:04:38;;;;;;;1.70;0.68;;;;;;;6.21;100.00;97688.84;5070375;28;20037;-68
2020/12/04 04:07:04;;;;;;;1.13;0.65;;;;;;;6.23;100.00;97689.47;5070664;28;20024;-68
2020/12/04 04:09:29;;;;;;;1.33;0.70;;;;;;;6.30;100.00;97690.22;5070987;28;20036;-69
2020/12/04 04:11:55;;;;;;;1.85;0.60;;;;;;;6.34;100.00;97694.09;5071351;28;20028;-69
2020/12/04 04:14:20;;;;;;;1.33;0.57;;;;;;;6.39;100.00;97690.78;5070679;28;20404;-69
2020/12/04 04:16:46;;;;;;;2.15;0.52;;;;;;;6.42;100.00;97693.00;5032528;28;20035;-68
2020/12/04 04:19:12;;;;;;;0.50;0.50;;;;;;;6.47;100.00;97685.97;5069660;28;20043;-69
2020/12/04 04:21:39;;;;;;;2.10;0.60;;;;;;;6.54;100.00;97693.13;5070808;28;20085;-68
2020/12/04 04:24:10;;;;;;;0.98;0.63;;;;;;;6.61;100.00;97692.03;5070764;28;20108;-68
2020/12/04 04:26:36;;;;;;;1.67;0.45;;;;;;;6.69;100.00;97699.75;5070178;28;20507;-69
2020/12/04 04:29:02;;;;;;;3.17;0.60;;;;;;;6.68;100.00;97690.13;5070887;28;20123;-68
2020/12/04 04:31:28;;;;;;;3.13;0.50;;;;;;;6.70;100.00;97708.56;5025712;28;20060;-68
2020/12/04 04:33:53;;;;;;;3.22;0.68;;;;;;;6.66;100.00;97712.69;5057085;28;20119;-69
2020/12/04 04:36:19;;;;;;;3.55;0.93;;;;;;;6.70;100.00;97708.56;5069846;28;20032;-69
2020/12/04 04:38:44;;;;;;;5.70;0.50;;;;;;;6.68;100.00;97708.78;5057013;28;20025;-68
2020/12/04 04:41:10;;;;;;;3.75;0.50;;;;;;;6.69;100.00;97702.41;5053087;28;20390;-69
2020/12/04 04:43:36;;;;;;;2.65;0.63;;;;;;;6.79;98.56;97707.25;5070760;28;20509;-68
2020/12/04 04:46:14;;;;;;;2.70;0.40;;;;;;;6.75;98.89;97709.53;5070235;28;20039;-68
2020/12/04 04:48:47;;;;;;;4.32;0.80;;;;;;;6.72;98.59;97695.81;5046839;28;20119;-69
2020/12/04 04:51:13;;;;;;;2.53;0.70;;;;;;;6.71;97.65;97711.00;5047854;28;20103;-68
2020/12/04 04:53:41;;;;;;;3.45;0.63;;;;;;;6.67;98.12;97714.31;5052824;28;20520;-68
2020/12/04 04:56:07;;;;;;;2.17;0.40;;;;;;;6.69;97.46;97726.38;5070126;28;20032;-69
2020/12/04 04:58:32;;;;;;;2.47;0.60;;;;;;;6.69;97.81;97721.06;5069822;28;20566;-68
2020/12/04 05:00:58;;;;;;;2.30;0.55;;;;;;;6.66;98.14;97723.34;5048829;28;20397;-68
2020/12/04 05:03:23;;;;;;;1.60;0.30;;;;;;;6.68;97.17;97705.31;5059272;28;20028;-68
2020/12/04 05:05:51;;;;;;;2.88;0.60;;;;;;;6.60;97.59;97698.38;5051920;28;20115;-68
2020/12/04 05:08:20;;;;;;;1.13;0.50;;;;;;;6.71;96.21;97715.50;5068543;28;20038;-68
2020/12/04 05:10:47;;;;;;;1.13;0.50;;;;;;;6.69;97.38;97741.56;5069584;28;20043;-68
2020/12/04 05:13:16;;;;;;;5.80;1.00;;;;;;;6.69;98.09;97747.69;5069818;28;20059;-68
2020/12/04 05:15:42;;;;;;;4.10;0.55;;;;;;;6.60;99.77;97753.50;5057667;28;20063;-69
2020/12/04 05:18:11;;;;;;;3.35;0.60;;;;;;;6.53;98.96;97763.41;5060108;28;20013;-69
2020/12/04 05:20:39;;;;;;;2.05;0.50;;;;;;;6.36;97.35;97766.56;5069569;28;20431;-69
2020/12/04 05:23:05;;;;;;;4.80;0.28;;;;;;;6.41;97.29;97765.91;5069697;28;20032;-69
2020/12/04 05:25:35;;;;;;;5.78;0.60;;;;;;;6.41;98.09;97772.06;5069494;28;20033;-69
2020/12/04 05:28:09;;;;;;;1.42;0.30;;;;;;;6.20;100.00;97772.41;5068604;28;20040;-69
2020/12/04 05:30:34;;;;;;;0.65;0.30;;;;;;;6.16;100.00;97800.47;5068076;28;20046;-69
2020/12/04 05:33:02;;;;;;;2.45;0.30;;;;;;;5.95;100.00;97783.75;5057619;28;20460;-69
2020/12/04 05:35:28;;;;;;;0.25;0.20;;;;;;;5.81;100.00;97768.03;5062463;28;20029;-69
2020/12/04 05:38:06;;;;;;;2.03;0.30;;;;;;;5.62;100.00;97764.41;5048984;28;20128;-69
2020/12/04 05:40:33;;;;;;;0.65;0.22;;;;;;;5.46;100.00;97758.53;5045358;28;20087;-69
2020/12/04 05:42:59;;;;;;;1.10;0.20;;;;;;;5.46;100.00;97771.81;5069189;28;20021;-69
2020/12/04 05:45:26;;;;;;;0.13;0.05;;;;;;;5.53;99.75;97786.97;5069427;28;20093;-69
2020/12/04 05:47:51;;;;;;;0.65;0.17;;;;;;;5.57;98.42;97788.16;5067174;28;20461;-69
2020/12/04 05:50:17;;;;;;;1.85;0.45;;;;;;;5.57;97.68;97789.00;5046287;28;20120;-69
2020/12/04 05:52:43;;;;;;;0.85;0.20;;;;;;;5.54;98.58;97815.19;5057843;28;20033;-69
2020/12/04 05:55:10;;;;;;;0.47;0.25;;;;;;;5.51;98.37;97824.38;5068870;28;20032;-69
2020/12/04 05:57:50;;;;;;;0.60;0.20;;;;;;;5.48;98.77;97834.63;5068649;28;20024;-69
2020/12/04 06:00:16;;;;;;;1.75;0.30;;;;;;;5.43;98.82;97814.78;5069201;28;20488;-69
2020/12/04 06:02:42;;;;;;;0.95;0.20;;;;;;;5.46;98.11;97817.00;5068698;28;20040;-69
2020/12/04 06:05:09;;;;;;;0.35;0.20;;;;;;;5.58;96.41;97819.06;5069330;28;20029;-68
2020/12/04 06:07:35;;;;;;;3.78;0.20;;;;;;;5.69;95.49;97810.44;5067587;28;20040;-68
2020/12/04 06:10:01;;;;;;;0.93;0.40;;;;;;;5.72;95.93;97828.63;5069328;28;20020;-69
2020/12/04 06:12:27;;;;;;;2.03;0.50;;;;;;;5.67;96.39;97837.25;5068159;28;20036;-69
2020/12/04 06:14:53;;;;;;;5.70;2.65;;;;;;;5.64;96.21;97839.50;5067442;28;20032;-69
2020/12/04 06:17:19;;;;;;;1.85;0.20;;;;;;;5.59;96.00;97821.50;5051977;28;20028;-69
2020/12/04 06:19:45;;;;;;;1.95;0.60;;;;;;;5.70;95.73;97839.47;5068765;28;20515;-69
2020/12/04 06:22:18;;;;;;;2.53;0.30;;;;;;;5.63;96.68;97837.88;5067811;28;20033;-69
2020/12/04 06:24:54;;;;;;;2.85;1.00;;;;;;;5.67;96.61;97866.50;5069085;28;20051;-69
2020/12/04 06:27:32;;;;;;;0.80;0.40;;;;;;;5.78;96.15;97870.38;5067483;28;20127;-69
2020/12/04 06:29:58;;;;;;;3.38;0.63;;;;;;;5.79;96.80;97876.50;5054276;28;20032;-69
2020/12/04 06:32:43;;;;;;;0.98;0.40;;;;;;;5.77;97.49;97863.41;5055452;28;20123;-69
2020/12/04 06:35:10;;;;;;;5.30;0.43;;;;;;;5.72;98.18;97884.47;5062365;28;20768;-69
2020/12/04 06:37:38;;;;;;;1.15;0.47;;;;;;;5.68;99.80;97897.41;5051936;28;20052;-69
2020/12/04 06:40:29;;;;;;;4.13;0.80;;;;;;;5.62;100.00;97894.72;5052941;28;20032;-69
2020/12/04 06:42:58;;;;;;;0.68;0.47;;;;;;;5.63;100.00;97909.69;5067702;28;20115;-69
2020/12/04 06:45:44;;;;;;;1.27;0.40;;;;;;;5.64;100.00;97913.97;5068656;28;20492;-69
2020/12/04 06:48:11;;;;;;;3.65;0.60;;;;;;;5.57;100.00;97910.47;5067516;28;20200;-69
2020/12/04 06:50:38;;;;;;;1.50;1.08;;;;;;;5.55;100.00;97910.69;5049667;28;20029;-69
2020/12/04 06:53:06;;;;;;;2.28;0.60;;;;;;;5.45;100.00;97913.75;5062845;28;20105;-69
2020/12/04 06:55:32;;;;;;;2.25;0.60;;;;;;;5.43;100.00;97917.66;5068159;28;20068;-68
2020/12/04 06:57:59;;;;;;;1.48;0.40;;;;;;;5.39;100.00;97919.09;5067360;28;20056;-69
2020/12/04 07:00:25;;;;;;;4.72;0.40;;;;;;;5.35;100.00;97923.19;5057745;28;20029;-68
2020/12/04 07:02:51;;;;;;;1.23;0.50;;;;;;;5.26;100.00;97937.69;5065940;28;20546;-68
2020/12/04 07:05:22;;;;;;;1.35;0.55;;;;;;;5.20;100.00;97948.09;5068406;28;20120;-68
2020/12/04 07:07:47;;;;;;;2.67;0.77;;;;;;;5.13;100.00;97959.75;5049422;28;20032;-68
2020/12/04 07:10:14;;;;;;;1.00;0.47;;;;;;;5.02;100.00;97955.00;5068242;28;20028;-68
2020/12/04 07:12:41;;;;;;;0.30;0.28;;;;;;;5.07;100.00;97957.88;5067564;28;20052;-69
2020/12/04 07:15:07;;;;;;;3.80;0.60;;;;;;;5.10;100.00;97963.63;5047155;28;20041;-69
2020/12/04 07:17:32;;;;;;;2.03;0.45;;;;;;;5.12;100.00;97966.06;5051927;28;20464;-69
2020/12/04 07:19:59;;;;;;;2.33;0.40;;;;;;;5.12;100.00;97958.09;5068147;28;20064;-69
2020/12/04 07:22:26;;;;;;;0.82;0.30;;;;;;;5.15;100.00;97979.78;5067522;28;20493;-68
2020/12/04 07:24:53;;;;;;;3.13;0.60;;;;;;;5.21;100.00;97983.47;5068201;28;20505;-69
2020/12/04 07:27:24;;;;;;;1.55;0.40;;;;;;;5.30;100.00;97990.25;5066830;28;20116;-69
2020/12/04 07:29:49;;;;;;;3.90;0.70;;;;;;;5.33;100.00;97991.69;5055395;28;20029;-72
2020/12/04 07:32:19;;;;;;;1.60;0.52;;;;;;;5.35;100.00;98018.88;5068571;28;20033;-69
2020/12/04 07:34:45;;;;;;;0.57;0.40;;;;;;;5.37;99.88;98025.66;5066312;28;20032;-69
2020/12/04 07:37:10;;;;;;;1.50;0.40;;;;;;;5.48;99.10;98023.41;5063435;28;20021;-69
2020/12/04 07:39:38;;;;;;;0.73;0.38;;;;;;;5.49;98.59;98031.19;5052291;28;20040;-69
2020/12/04 07:42:05;;;;;;;0.65;0.50;;;;;;;5.47;99.80;98043.84;5064324;28;20025;-69
2020/12/04 07:44:35;;;;;;;1.17;0.30;;;;;;;5.52;98.31;98060.00;5065811;28;20086;-69
2020/12/04 07:47:11;;;;;;;1.45;0.35;;;;;;;5.56;97.92;98050.63;5063601;28;20067;-69
2020/12/04 07:49:42;;;;;;;3.03;0.65;;;;;;;5.57;97.96;98067.38;5066958;28;20048;-69
2020/12/04 07:52:12;;;;;;;1.63;0.60;;;;;;;5.58;98.23;98069.03;5026784;28;20405;-69
2020/12/04 07:54:38;;;;;;;1.20;0.63;;;;;;;5.56;98.51;98074.53;5037467;28;20033;-69
2020/12/04 07:57:04;;;;;;;1.27;0.65;;;;;;;5.58;98.34;98077.03;5050382;28;20037;-69
2020/12/04 07:59:32;;;;;;;3.60;1.00;;;;;;;5.57;97.99;98086.00;5066598;28;20404;-69
2020/12/04 08:02:00;;;;;;;6.00;0.73;;;;;;;5.62;97.97;98095.03;5041725;28;20029;-69
2020/12/04 08:04:27;;;;;;;1.98;0.98;;;;;;;5.66;97.23;98100.75;5063708;28;20052;-69
2020/12/04 08:07:05;;;;;;;1.95;0.68;;;;;;;5.57;97.65;98096.63;5060608;28;20048;-69
2020/12/04 08:09:33;;;;;;;1.00;0.70;;;;;;;5.56;98.22;98103.81;5050028;28;20036;-69
2020/12/04 08:12:02;;;;;;;3.38;0.73;;;;;;;5.57;97.61;98094.81;5049857;28;20029;-70
2020/12/04 08:14:28;;;;;;;1.67;0.55;;;;;;;5.61;96.37;98096.03;5068819;28;20077;-69
2020/12/04 08:16:57;;;;;;;1.17;0.70;;;;;;;5.64;96.05;98093.00;5038188;28;20059;-70
2020/12/04 08:19:25;;;;;;;1.95;0.60;;;;;;;5.62;95.34;98078.22;5031868;28;20041;-69
2020/12/04 08:21:56;;;;;;;5.50;1.50;;;;;;;5.61;95.89;98084.59;5049767;28;20125;-69
2020/12/04 08:24:24;;;;;;;4.28;1.08;;;;;;;5.64;95.47;98094.84;5057755;28;20562;-69
2020/12/04 08:27:03;;;;;;;1.67;0.63;;;;;;;5.60;96.03;98091.75;5055417;28;20108;-69
2020/12/04 08:29:29;;;;;;;3.28;0.82;;;;;;;5.61;95.31;98109.34;5058986;28;20035;-69
2020/12/04 08:32:07;;;;;;;2.45;0.63;;;;;;;5.56;96.09;98118.94;5034715;28;20115;-69
2020/12/04 08:34:33;;;;;;;1.60;0.50;;;;;;;5.54;96.21;98123.66;5052379;28;20032;-68
2020/12/04 08:37:01;;;;;;;1.80;0.70;;;;;;;5.52;96.69;98131.00;5062120;28;20031;-69
2020/12/04 08:39:41;;;;;;;1.10;0.63;;;;;;;5.55;95.97;98122.63;5037157;28;20029;-69
2020/12/04 08:42:12;;;;;;;1.70;0.70;;;;;;;5.61;94.87;98127.94;5036787;28;20033;-68
2020/12/04 08:44:37;;;;;;;0.65;0.45;;;;;;;5.66;94.72;98141.47;5048933;28;20072;-69
2020/12/04 08:47:03;;;;;;;3.67;0.57;;;;;;;5.59;94.72;98153.94;5057082;28;20056;-69
2020/12/04 08:49:29;;;;;;;0.90;0.50;;;;;;;5.53;95.24;98145.94;5049795;28;20025;-69
2020/12/04 08:51:54;;;;;;;0.73;0.45;;;;;;;5.55;95.00;98155.34;5048684;28;20033;-69
2020/12/04 08:54:20;;;;;;;3.03;0.50;;;;;;;5.59;92.72;98145.16;5062554;28;20036;-68
2020/12/04 08:56:53;;;;;;;1.35;0.60;;;;;;;5.56;93.37;98153.50;5056121;28;20122;-69
2020/12/04 08:59:19;;;;;;;1.92;0.70;;;;;;;5.62;92.55;98152.72;5068581;28;20033;-69
2020/12/04 09:01:44;;;;;;;2.20;0.85;;;;;;;5.62;91.79;98172.16;5042694;28;20025;-68
2020/12/04 09:04:10;;;;;;;1.88;0.70;;;;;;;5.59;91.90;98175.22;5048858;28;20486;-69
2020/12/04 09:06:35;;;;;;;1.45;0.68;;;;;;;5.62;91.59;98174.84;5048438;28;20047;-69
2020/12/04 09:09:01;;;;;;;1.10;0.52;;;;;;;5.64;90.88;98179.94;5030594;28;20032;-69
2020/12/04 09:11:31;;;;;;;1.05;0.63;;;;;;;5.66;91.01;98189.34;5056449;28;20033;-69
2020/12/04 09:13:57;;;;;;;1.90;0.63;;;;;;;5.73;89.69;98186.72;5067045;28;20033;-68
2020/12/04 09:16:22;;;;;;;1.10;0.55;;;;;;;5.75;89.46;98187.34;5056199;28;20024;-69
2020/12/04 09:18:48;;;;;;;2.20;0.43;;;;;;;5.69;90.02;98193.47;5054693;28;20405;-68
2020/12/04 09:21:13;;;;;;;2.00;0.50;;;;;;;5.72;90.66;98207.19;5059822;28;20025;-69
2020/12/04 09:23:39;;;;;;;1.52;0.80;;;;;;;5.69;90.90;98220.06;5044622;28;20062;-68
2020/12/04 09:26:05;;;;;;;0.45;0.40;;;;;;;5.71;90.19;98221.50;5056211;28;20047;-69
2020/12/04 09:28:31;;;;;;;3.13;0.50;;;;;;;5.68;89.46;98231.72;5035086;28;20037;-69
2020/12/04 09:30:58;;;;;;;0.60;0.40;;;;;;;5.72;90.40;98232.94;5046772;28;20037;-69
2020/12/04 09:33:24;;;;;;;1.38;0.45;;;;;;;5.79;89.92;98240.97;5050337;28;20090;-69
2020/12/04 09:35:50;;;;;;;0.60;0.50;;;;;;;5.83;87.92;98236.91;5068069;28;20036;-69
2020/12/04 09:38:15;;;;;;;1.13;0.75;;;;;;;5.79;87.57;98231.16;5054635;28;20153;-68
2020/12/04 09:40:41;;;;;;;2.75;0.95;;;;;;;5.80;87.56;98251.41;5049932;28;20123;-69
2020/12/04 09:43:07;;;;;;;2.70;0.90;;;;;;;5.80;87.78;98264.72;5034009;28;20033;-69
2020/12/04 09:45:32;;;;;;;2.08;1.20;;;;;;;5.78;87.63;98261.44;5030528;28;20029;-69
2020/12/04 09:47:58;;;;;;;0.90;0.40;;;;;;;5.86;86.56;98287.84;5061109;28;20515;-69
2020/12/04 09:50:23;;;;;;;1.27;0.40;;;;;;;5.82;84.65;98285.78;5043701;28;20037;-69
2020/12/04 09:52:50;;;;;;;1.13;0.65;;;;;;;5.77;84.42;98282.91;5056672;28;20029;-69
2020/12/04 09:55:16;;;;;;;1.75;0.57;;;;;;;5.86;83.24;98277.22;5056487;28;20034;-70
2020/12/04 09:57:41;;;;;;;0.45;0.40;;;;;;;5.83;81.77;98282.94;5065743;28;20127;-68
2020/12/04 10:00:07;;;;;;;0.88;0.50;;;;;;;5.84;83.46;98281.94;5047132;28;20029;-69
2020/12/04 10:02:33;;;;;;;0.68;0.45;;;;;;;5.82;82.94;98283.94;5049640;28;20051;-69
2020/12/04 10:04:59;;;;;;;0.65;0.50;;;;;;;5.88;84.00;98301.81;5067221;28;20059;-69
2020/12/04 10:07:24;;;;;;;1.92;0.93;;;;;;;5.88;84.36;98309.78;5065038;28;20024;-69
2020/12/04 10:09:50;;;;;;;1.55;0.70;;;;;;;5.87;84.59;98313.47;5047584;28;20033;-69
2020/12/04 10:12:15;;;;;;;1.38;0.50;;;;;;;5.95;83.79;98307.19;5049484;28;20432;-69
2020/12/04 10:14:41;;;;;;;1.10;0.60;;;;;;;6.01;84.18;98305.56;5067812;28;20044;-69
2020/12/04 10:17:08;;;;;;;1.40;0.70;;;;;;;6.05;85.29;98317.47;5047224;28;20080;-69
2020/12/04 10:19:34;;;;;;;0.85;0.57;;;;;;;6.01;84.96;98308.22;5037896;28;20434;-69
2020/12/04 10:22:00;;;;;;;0.68;0.63;;;;;;;6.05;85.20;98306.81;5043331;28;20479;-69
2020/12/04 10:24:25;;;;;;;1.05;0.60;;;;;;;5.95;85.27;98318.63;5056319;28;20032;-69
2020/12/04 10:26:51;;;;;;;0.80;0.60;;;;;;;5.93;85.10;98311.88;5053880;28;20491;-69
2020/12/04 10:29:18;;;;;;;1.98;0.57;;;;;;;6.01;85.63;98300.25;5059092;28;20485;-68
2020/12/04 10:31:46;;;;;;;0.90;0.40;;;;;;;6.09;86.22;98295.56;5061792;28;20072;-69
2020/12/04 10:34:12;;;;;;;2.15;0.80;;;;;;;6.15;84.60;98300.09;5035117;28;20102;-68
2020/12/04 10:36:39;;;;;;;0.77;0.70;;;;;;;6.12;86.71;98300.47;5048210;28;20063;-68
2020/12/04 10:39:07;;;;;;;1.63;0.70;;;;;;;6.32;84.23;98297.88;5044133;28;20040;-68
2020/12/04 10:41:34;;;;;;;2.10;1.00;;;;;;;6.20;84.69;98302.97;5046940;28;20051;-68
2020/12/04 10:44:01;;;;;;;0.85;0.70;;;;;;;6.15;86.37;98299.28;5060053;28;20511;-68
2020/12/04 10:46:26;;;;;;;2.15;0.80;;;;;;;6.11;86.94;98298.84;5060477;28;20067;-68
2020/12/04 10:48:53;;;;;;;0.80;0.70;;;;;;;6.09;87.92;98300.88;5045970;28;20028;-69
2020/12/04 10:51:25;;;;;;;0.73;0.60;;;;;;;6.11;85.65;98300.69;5063033;28;20044;-69
2020/12/04 10:53:52;;;;;;;4.32;0.70;;;;;;;6.02;85.00;98296.53;5046827;28;20037;-69
2020/12/04 10:56:20;;;;;;;0.80;0.70;;;;;;;6.09;86.21;98292.09;5030910;28;20516;-68
2020/12/04 10:58:47;;;;;;;2.65;0.70;;;;;;;6.10;85.13;98289.22;5055700;28;20480;-68
2020/12/04 11:01:14;;;;;;;1.77;0.90;;;;;;;6.04;87.98;98290.03;5058268;28;20365;-68
2020/12/04 11:06:21;;;;;;;1.42;1.05;;;;;;;6.15;87.04;98291.28;5048836;28;20043;-69
2020/12/04 11:08:48;;;;;;;1.20;0.60;;;;;;;6.28;86.96;98282.53;5057292;28;20493;-69
2020/12/04 11:11:15;;;;;;;2.50;0.80;;;;;;;6.39;88.54;98281.94;5050807;28;20469;-68
2020/12/04 11:13:41;;;;;;;2.30;0.77;;;;;;;6.54;87.45;98284.41;5049092;28;20436;-68
2020/12/04 11:16:07;;;;;;;0.75;0.60;;;;;;;6.52;86.92;98284.59;5057436;28;20546;-68
2020/12/04 11:18:33;;;;;;;1.45;0.80;;;;;;;6.57;86.84;98289.31;5055711;28;20598;-69
2020/12/04 11:20:58;;;;;;;2.28;0.70;;;;;;;6.53;83.94;98288.09;5051319;28;20028;-69
2020/12/04 11:23:24;;;;;;;3.08;0.65;;;;;;;6.43;86.77;98288.50;5046574;28;20029;-69
2020/12/04 11:25:49;;;;;;;1.90;0.85;;;;;;;6.53;88.86;98296.09;5062389;28;20174;-68
2020/12/04 11:28:15;;;;;;;1.10;0.70;;;;;;;6.68;88.12;98291.41;5048754;28;20032;-68
2020/12/04 11:30:41;;;;;;;1.25;0.77;;;;;;;6.68;84.71;98291.41;5060054;28;20037;-68
2020/12/04 11:33:06;;;;;;;2.33;0.77;;;;;;;6.67;86.41;98289.75;5040123;28;20033;-69
2020/12/04 11:35:32;;;;;;;1.70;0.50;;;;;;;6.57;82.11;98291.97;5036142;28;20048;-68
2020/12/04 11:37:59;;;;;;;1.17;0.60;;;;;;;6.51;83.39;98311.44;5045565;28;20526;-68